sensor_id;sensor_type;location;lat;lon;timestamp;P1;durP1;ratioP1;P2;durP2;ratioP2
68633;SDS011;55625;47.072;22.192;2022-09-09T00:06:23;9.27;;;4.53;;
68633;SDS011;55625;47.072;22.192;2022-09-09T00:11:44;8.18;;;4.18;;
68633;SDS011;55625;47.072;22.192;2022-09-09T00:14:26;7.78;;;3.50;;
68633;SDS011;55625;47.072;22.192;2022-09-09T00:16:59;8.15;;;4.25;;
68633;SDS011;55625;47.072;22.192;2022-09-09T00:22:16;7.83;;;5.07;;
68633;SDS011;55625;47.072;22.192;2022-09-09T00:24:54;11.23;;;4.43;;
68633;SDS011;55625;47.072;22.192;2022-09-09T00:27:29;8.02;;;4.43;;
68633;SDS011;55625;47.072;22.192;2022-09-09T00:32:50;15.05;;;4.22;;
68633;SDS011;55625;47.072;22.192;2022-09-09T00:35:32;7.10;;;3.30;;
68633;SDS011;55625;47.072;22.192;2022-09-09T00:38:05;9.38;;;4.75;;
68633;SDS011;55625;47.072;22.192;2022-09-09T00:41:17;11.95;;;5.43;;
68633;SDS011;55625;47.072;22.192;2022-09-09T00:43:40;11.18;;;4.47;;
68633;SDS011;55625;47.072;22.192;2022-09-09T00:57:59;8.98;;;5.13;;
68633;SDS011;55625;47.072;22.192;2022-09-09T01:00:29;9.43;;;4.20;;
68633;SDS011;55625;47.072;22.192;2022-09-09T01:06:18;8.35;;;3.33;;
68633;SDS011;55625;47.072;22.192;2022-09-09T01:11:37;8.90;;;3.83;;
68633;SDS011;55625;47.072;22.192;2022-09-09T01:14:44;8.23;;;3.80;;
68633;SDS011;55625;47.072;22.192;2022-09-09T01:28:51;8.30;;;3.97;;
68633;SDS011;55625;47.072;22.192;2022-09-09T01:31:20;9.05;;;4.22;;
68633;SDS011;55625;47.072;22.192;2022-09-09T01:33:56;7.90;;;3.95;;
68633;SDS011;55625;47.072;22.192;2022-09-09T01:36:29;7.10;;;3.60;;
68633;SDS011;55625;47.072;22.192;2022-09-09T01:39:24;7.80;;;3.30;;
68633;SDS011;55625;47.072;22.192;2022-09-09T01:41:50;10.10;;;4.70;;
68633;SDS011;55625;47.072;22.192;2022-09-09T01:44:18;7.88;;;2.92;;
68633;SDS011;55625;47.072;22.192;2022-09-09T01:46:44;10.07;;;4.93;;
68633;SDS011;55625;47.072;22.192;2022-09-09T01:49:10;7.53;;;4.03;;
68633;SDS011;55625;47.072;22.192;2022-09-09T01:51:36;9.80;;;4.87;;
68633;SDS011;55625;47.072;22.192;2022-09-09T01:54:04;9.48;;;5.03;;
68633;SDS011;55625;47.072;22.192;2022-09-09T01:56:35;10.25;;;5.18;;
68633;SDS011;55625;47.072;22.192;2022-09-09T01:59:21;8.35;;;4.97;;
68633;SDS011;55625;47.072;22.192;2022-09-09T02:08:00;11.05;;;5.93;;
68633;SDS011;55625;47.072;22.192;2022-09-09T02:10:42;10.07;;;5.38;;
68633;SDS011;55625;47.072;22.192;2022-09-09T02:13:17;10.20;;;5.25;;
68633;SDS011;55625;47.072;22.192;2022-09-09T02:15:52;12.10;;;5.13;;
68633;SDS011;55625;47.072;22.192;2022-09-09T02:19:14;10.52;;;5.32;;
68633;SDS011;55625;47.072;22.192;2022-09-09T02:21:42;13.55;;;5.70;;
68633;SDS011;55625;47.072;22.192;2022-09-09T02:24:10;9.73;;;5.80;;
68633;SDS011;55625;47.072;22.192;2022-09-09T02:26:41;12.88;;;5.70;;
68633;SDS011;55625;47.072;22.192;2022-09-09T02:29:19;11.00;;;4.90;;
68633;SDS011;55625;47.072;22.192;2022-09-09T02:31:53;12.00;;;5.70;;
68633;SDS011;55625;47.072;22.192;2022-09-09T02:34:28;9.10;;;5.07;;
68633;SDS011;55625;47.072;22.192;2022-09-09T02:36:55;13.13;;;5.53;;
68633;SDS011;55625;47.072;22.192;2022-09-09T02:39:25;11.95;;;5.40;;
68633;SDS011;55625;47.072;22.192;2022-09-09T02:41:51;10.77;;;5.23;;
68633;SDS011;55625;47.072;22.192;2022-09-09T02:44:18;8.82;;;5.13;;
68633;SDS011;55625;47.072;22.192;2022-09-09T02:46:50;12.25;;;4.93;;
68633;SDS011;55625;47.072;22.192;2022-09-09T02:55:56;9.47;;;4.97;;
68633;SDS011;55625;47.072;22.192;2022-09-09T02:58:23;11.82;;;5.80;;
68633;SDS011;55625;47.072;22.192;2022-09-09T03:00:50;9.88;;;5.97;;
68633;SDS011;55625;47.072;22.192;2022-09-09T03:03:17;10.55;;;5.88;;
68633;SDS011;55625;47.072;22.192;2022-09-09T03:05:44;10.25;;;5.20;;
68633;SDS011;55625;47.072;22.192;2022-09-09T03:08:10;9.77;;;5.20;;
68633;SDS011;55625;47.072;22.192;2022-09-09T03:10:38;9.95;;;5.07;;
68633;SDS011;55625;47.072;22.192;2022-09-09T03:13:03;8.65;;;5.30;;
68633;SDS011;55625;47.072;22.192;2022-09-09T03:15:30;8.55;;;4.40;;
68633;SDS011;55625;47.072;22.192;2022-09-09T03:17:57;10.38;;;4.85;;
68633;SDS011;55625;47.072;22.192;2022-09-09T03:20:24;10.10;;;5.63;;
68633;SDS011;55625;47.072;22.192;2022-09-09T03:22:53;10.77;;;5.25;;
68633;SDS011;55625;47.072;22.192;2022-09-09T03:25:19;11.30;;;6.03;;
68633;SDS011;55625;47.072;22.192;2022-09-09T03:27:48;10.00;;;4.65;;
68633;SDS011;55625;47.072;22.192;2022-09-09T03:30:16;8.85;;;4.93;;
68633;SDS011;55625;47.072;22.192;2022-09-09T03:32:42;8.33;;;3.90;;
68633;SDS011;55625;47.072;22.192;2022-09-09T03:35:08;8.65;;;5.15;;
68633;SDS011;55625;47.072;22.192;2022-09-09T03:37:34;8.38;;;4.18;;
68633;SDS011;55625;47.072;22.192;2022-09-09T03:39:59;9.73;;;5.50;;
68633;SDS011;55625;47.072;22.192;2022-09-09T03:42:25;10.25;;;4.90;;
68633;SDS011;55625;47.072;22.192;2022-09-09T03:44:52;9.98;;;4.32;;
68633;SDS011;55625;47.072;22.192;2022-09-09T03:47:18;9.47;;;4.40;;
68633;SDS011;55625;47.072;22.192;2022-09-09T03:49:46;9.48;;;4.28;;
68633;SDS011;55625;47.072;22.192;2022-09-09T03:52:13;8.93;;;5.60;;
68633;SDS011;55625;47.072;22.192;2022-09-09T03:54:40;7.47;;;4.55;;
68633;SDS011;55625;47.072;22.192;2022-09-09T03:57:07;8.70;;;3.30;;
68633;SDS011;55625;47.072;22.192;2022-09-09T03:59:36;7.40;;;3.53;;
68633;SDS011;55625;47.072;22.192;2022-09-09T04:02:02;7.20;;;3.88;;
68633;SDS011;55625;47.072;22.192;2022-09-09T04:04:28;8.55;;;4.22;;
68633;SDS011;55625;47.072;22.192;2022-09-09T04:06:54;10.43;;;5.03;;
68633;SDS011;55625;47.072;22.192;2022-09-09T04:09:20;19.90;;;6.53;;
68633;SDS011;55625;47.072;22.192;2022-09-09T04:11:46;16.25;;;6.25;;
68633;SDS011;55625;47.072;22.192;2022-09-09T04:14:12;14.57;;;5.32;;
68633;SDS011;55625;47.072;22.192;2022-09-09T04:16:38;11.00;;;4.63;;
68633;SDS011;55625;47.072;22.192;2022-09-09T04:19:04;9.55;;;4.47;;
68633;SDS011;55625;47.072;22.192;2022-09-09T04:21:32;8.60;;;4.28;;
68633;SDS011;55625;47.072;22.192;2022-09-09T04:23:58;8.17;;;4.10;;
68633;SDS011;55625;47.072;22.192;2022-09-09T04:26:24;7.23;;;3.67;;
68633;SDS011;55625;47.072;22.192;2022-09-09T04:28:50;8.90;;;4.57;;
68633;SDS011;55625;47.072;22.192;2022-09-09T04:31:18;8.07;;;4.10;;
68633;SDS011;55625;47.072;22.192;2022-09-09T04:33:48;10.03;;;4.13;;
68633;SDS011;55625;47.072;22.192;2022-09-09T04:36:15;9.57;;;4.05;;
68633;SDS011;55625;47.072;22.192;2022-09-09T04:38:43;7.45;;;4.30;;
68633;SDS011;55625;47.072;22.192;2022-09-09T04:41:09;7.90;;;3.90;;
68633;SDS011;55625;47.072;22.192;2022-09-09T04:43:36;10.25;;;3.67;;
68633;SDS011;55625;47.072;22.192;2022-09-09T04:46:05;6.60;;;3.60;;
68633;SDS011;55625;47.072;22.192;2022-09-09T04:48:31;6.85;;;3.30;;
68633;SDS011;55625;47.072;22.192;2022-09-09T04:50:58;7.28;;;3.33;;
68633;SDS011;55625;47.072;22.192;2022-09-09T04:53:27;7.85;;;4.38;;
68633;SDS011;55625;47.072;22.192;2022-09-09T04:56:00;7.32;;;3.85;;
68633;SDS011;55625;47.072;22.192;2022-09-09T04:58:35;7.97;;;3.90;;
68633;SDS011;55625;47.072;22.192;2022-09-09T05:01:03;6.82;;;3.10;;
68633;SDS011;55625;47.072;22.192;2022-09-09T05:03:31;5.47;;;2.90;;
68633;SDS011;55625;47.072;22.192;2022-09-09T05:06:09;7.07;;;3.80;;
68633;SDS011;55625;47.072;22.192;2022-09-09T05:08:38;7.32;;;3.00;;
68633;SDS011;55625;47.072;22.192;2022-09-09T05:14:01;6.10;;;3.58;;
68633;SDS011;55625;47.072;22.192;2022-09-09T05:16:28;6.55;;;2.47;;
68633;SDS011;55625;47.072;22.192;2022-09-09T05:18:55;7.57;;;3.00;;
68633;SDS011;55625;47.072;22.192;2022-09-09T05:21:21;5.28;;;2.35;;
68633;SDS011;55625;47.072;22.192;2022-09-09T05:23:50;8.67;;;3.23;;
68633;SDS011;55625;47.072;22.192;2022-09-09T05:26:17;11.75;;;3.13;;
68633;SDS011;55625;47.072;22.192;2022-09-09T05:28:45;5.97;;;2.88;;
68633;SDS011;55625;47.072;22.192;2022-09-09T05:31:12;6.72;;;2.63;;
68633;SDS011;55625;47.072;22.192;2022-09-09T05:33:40;6.47;;;2.93;;
68633;SDS011;55625;47.072;22.192;2022-09-09T05:36:12;5.43;;;2.72;;
68633;SDS011;55625;47.072;22.192;2022-09-09T05:38:41;4.85;;;2.33;;
68633;SDS011;55625;47.072;22.192;2022-09-09T05:41:09;4.68;;;2.15;;
68633;SDS011;55625;47.072;22.192;2022-09-09T05:43:37;5.88;;;2.95;;
68633;SDS011;55625;47.072;22.192;2022-09-09T05:48:37;5.35;;;2.88;;
68633;SDS011;55625;47.072;22.192;2022-09-09T05:51:09;7.90;;;2.40;;
68633;SDS011;55625;47.072;22.192;2022-09-09T05:53:38;5.68;;;2.67;;
68633;SDS011;55625;47.072;22.192;2022-09-09T05:56:04;6.32;;;2.65;;
68633;SDS011;55625;47.072;22.192;2022-09-09T05:58:35;6.63;;;3.03;;
68633;SDS011;55625;47.072;22.192;2022-09-09T06:03:35;9.82;;;3.25;;
68633;SDS011;55625;47.072;22.192;2022-09-09T06:06:05;7.70;;;3.08;;
68633;SDS011;55625;47.072;22.192;2022-09-09T06:08:34;6.72;;;3.20;;
68633;SDS011;55625;47.072;22.192;2022-09-09T06:11:04;7.53;;;3.60;;
68633;SDS011;55625;47.072;22.192;2022-09-09T06:13:33;5.97;;;2.72;;
68633;SDS011;55625;47.072;22.192;2022-09-09T06:16:00;7.13;;;2.80;;
68633;SDS011;55625;47.072;22.192;2022-09-09T06:18:26;5.30;;;2.33;;
68633;SDS011;55625;47.072;22.192;2022-09-09T06:23:29;5.20;;;3.10;;
68633;SDS011;55625;47.072;22.192;2022-09-09T06:28:43;6.03;;;2.60;;
68633;SDS011;55625;47.072;22.192;2022-09-09T06:31:13;5.45;;;1.95;;
68633;SDS011;55625;47.072;22.192;2022-09-09T06:33:51;6.88;;;2.72;;
68633;SDS011;55625;47.072;22.192;2022-09-09T06:36:23;4.53;;;2.07;;
68633;SDS011;55625;47.072;22.192;2022-09-09T06:38:58;5.32;;;2.72;;
68633;SDS011;55625;47.072;22.192;2022-09-09T06:41:26;6.88;;;2.72;;
68633;SDS011;55625;47.072;22.192;2022-09-09T06:43:55;8.07;;;3.15;;
68633;SDS011;55625;47.072;22.192;2022-09-09T06:46:22;7.25;;;2.53;;
68633;SDS011;55625;47.072;22.192;2022-09-09T06:48:53;5.17;;;2.17;;
68633;SDS011;55625;47.072;22.192;2022-09-09T06:51:24;6.88;;;3.03;;
68633;SDS011;55625;47.072;22.192;2022-09-09T06:54:01;5.88;;;1.98;;
68633;SDS011;55625;47.072;22.192;2022-09-09T06:56:30;6.15;;;2.22;;
68633;SDS011;55625;47.072;22.192;2022-09-09T06:59:00;8.57;;;2.70;;
68633;SDS011;55625;47.072;22.192;2022-09-09T07:01:33;6.17;;;3.30;;
68633;SDS011;55625;47.072;22.192;2022-09-09T07:04:03;5.13;;;1.98;;
68633;SDS011;55625;47.072;22.192;2022-09-09T07:06:33;4.70;;;1.60;;
68633;SDS011;55625;47.072;22.192;2022-09-09T07:09:05;4.57;;;2.03;;
68633;SDS011;55625;47.072;22.192;2022-09-09T07:11:38;7.57;;;2.35;;
68633;SDS011;55625;47.072;22.192;2022-09-09T07:14:07;4.17;;;1.93;;
68633;SDS011;55625;47.072;22.192;2022-09-09T07:16:34;4.55;;;2.22;;
68633;SDS011;55625;47.072;22.192;2022-09-09T07:19:02;7.38;;;1.98;;
68633;SDS011;55625;47.072;22.192;2022-09-09T07:21:29;6.38;;;1.65;;
68633;SDS011;55625;47.072;22.192;2022-09-09T07:23:57;10.07;;;2.22;;
68633;SDS011;55625;47.072;22.192;2022-09-09T07:26:24;5.73;;;2.60;;
68633;SDS011;55625;47.072;22.192;2022-09-09T07:28:52;4.32;;;1.90;;
68633;SDS011;55625;47.072;22.192;2022-09-09T07:31:22;4.70;;;1.92;;
68633;SDS011;55625;47.072;22.192;2022-09-09T07:33:57;4.85;;;2.47;;
68633;SDS011;55625;47.072;22.192;2022-09-09T07:36:25;8.07;;;1.98;;
68633;SDS011;55625;47.072;22.192;2022-09-09T07:38:58;6.50;;;2.17;;
68633;SDS011;55625;47.072;22.192;2022-09-09T07:41:37;4.25;;;1.88;;
68633;SDS011;55625;47.072;22.192;2022-09-09T07:44:18;6.13;;;2.35;;
68633;SDS011;55625;47.072;22.192;2022-09-09T07:46:47;7.95;;;2.70;;
68633;SDS011;55625;47.072;22.192;2022-09-09T07:49:14;6.20;;;2.58;;
68633;SDS011;55625;47.072;22.192;2022-09-09T07:51:41;6.50;;;2.30;;
68633;SDS011;55625;47.072;22.192;2022-09-09T07:54:11;5.22;;;2.50;;
68633;SDS011;55625;47.072;22.192;2022-09-09T07:56:39;6.28;;;1.63;;
68633;SDS011;55625;47.072;22.192;2022-09-09T07:59:06;5.32;;;3.15;;
68633;SDS011;55625;47.072;22.192;2022-09-09T08:01:34;9.93;;;1.88;;
68633;SDS011;55625;47.072;22.192;2022-09-09T08:04:11;6.50;;;2.03;;
68633;SDS011;55625;47.072;22.192;2022-09-09T08:06:47;9.10;;;2.33;;
68633;SDS011;55625;47.072;22.192;2022-09-09T08:09:22;7.65;;;2.70;;
68633;SDS011;55625;47.072;22.192;2022-09-09T08:11:50;5.90;;;2.50;;
68633;SDS011;55625;47.072;22.192;2022-09-09T08:14:16;6.20;;;2.67;;
68633;SDS011;55625;47.072;22.192;2022-09-09T08:16:44;7.13;;;2.42;;
68633;SDS011;55625;47.072;22.192;2022-09-09T08:19:12;6.88;;;4.03;;
68633;SDS011;55625;47.072;22.192;2022-09-09T08:21:40;11.90;;;4.15;;
68633;SDS011;55625;47.072;22.192;2022-09-09T08:24:07;7.68;;;3.53;;
68633;SDS011;55625;47.072;22.192;2022-09-09T08:26:40;5.57;;;2.53;;
68633;SDS011;55625;47.072;22.192;2022-09-09T08:29:09;6.68;;;2.95;;
68633;SDS011;55625;47.072;22.192;2022-09-09T08:31:51;6.07;;;2.80;;
68633;SDS011;55625;47.072;22.192;2022-09-09T08:34:19;7.32;;;3.00;;
68633;SDS011;55625;47.072;22.192;2022-09-09T08:36:47;6.90;;;3.40;;
68633;SDS011;55625;47.072;22.192;2022-09-09T08:39:15;9.57;;;3.03;;
68633;SDS011;55625;47.072;22.192;2022-09-09T08:53:05;5.07;;;2.50;;
68633;SDS011;55625;47.072;22.192;2022-09-09T08:55:48;7.20;;;3.67;;
68633;SDS011;55625;47.072;22.192;2022-09-09T08:58:29;6.53;;;2.85;;
68633;SDS011;55625;47.072;22.192;2022-09-09T09:01:01;7.85;;;3.78;;
68633;SDS011;55625;47.072;22.192;2022-09-09T09:11:48;5.32;;;2.53;;
68633;SDS011;55625;47.072;22.192;2022-09-09T09:14:26;8.15;;;4.07;;
68633;SDS011;55625;47.072;22.192;2022-09-09T09:19:28;8.47;;;3.93;;
68633;SDS011;55625;47.072;22.192;2022-09-09T09:24:51;7.53;;;3.92;;
68633;SDS011;55625;47.072;22.192;2022-09-09T09:27:21;6.95;;;3.97;;
68633;SDS011;55625;47.072;22.192;2022-09-09T09:30:02;7.93;;;3.58;;
68633;SDS011;55625;47.072;22.192;2022-09-09T09:32:51;6.87;;;4.40;;
68633;SDS011;55625;47.072;22.192;2022-09-09T09:35:26;6.85;;;3.40;;
68633;SDS011;55625;47.072;22.192;2022-09-09T09:37:52;8.35;;;4.03;;
68633;SDS011;55625;47.072;22.192;2022-09-09T09:40:19;9.70;;;4.07;;
68633;SDS011;55625;47.072;22.192;2022-09-09T09:42:49;10.97;;;4.00;;
68633;SDS011;55625;47.072;22.192;2022-09-09T09:45:26;8.00;;;4.28;;
68633;SDS011;55625;47.072;22.192;2022-09-09T09:48:04;8.05;;;3.40;;
68633;SDS011;55625;47.072;22.192;2022-09-09T09:50:34;8.18;;;3.95;;
68633;SDS011;55625;47.072;22.192;2022-09-09T09:53:05;9.32;;;4.38;;
68633;SDS011;55625;47.072;22.192;2022-09-09T09:55:57;8.97;;;3.60;;
68633;SDS011;55625;47.072;22.192;2022-09-09T10:06:48;6.55;;;3.75;;
68633;SDS011;55625;47.072;22.192;2022-09-09T10:09:28;11.70;;;4.07;;
68633;SDS011;55625;47.072;22.192;2022-09-09T10:21:37;7.60;;;3.85;;
68633;SDS011;55625;47.072;22.192;2022-09-09T10:44:01;9.88;;;4.03;;
68633;SDS011;55625;47.072;22.192;2022-09-09T10:55:26;8.63;;;3.55;;
68633;SDS011;55625;47.072;22.192;2022-09-09T10:58:10;11.23;;;4.20;;
68633;SDS011;55625;47.072;22.192;2022-09-09T11:00:49;7.82;;;4.55;;
68633;SDS011;55625;47.072;22.192;2022-09-09T11:03:22;9.43;;;4.43;;
68633;SDS011;55625;47.072;22.192;2022-09-09T11:05:57;8.10;;;4.20;;
68633;SDS011;55625;47.072;22.192;2022-09-09T11:08:32;7.97;;;4.65;;
68633;SDS011;55625;47.072;22.192;2022-09-09T11:11:03;9.73;;;4.75;;
68633;SDS011;55625;47.072;22.192;2022-09-09T11:21:59;8.52;;;5.13;;
68633;SDS011;55625;47.072;22.192;2022-09-09T11:36:43;8.88;;;4.88;;
68633;SDS011;55625;47.072;22.192;2022-09-09T11:39:53;12.45;;;4.53;;
68633;SDS011;55625;47.072;22.192;2022-09-09T11:42:40;9.82;;;5.30;;
68633;SDS011;55625;47.072;22.192;2022-09-09T11:45:25;11.27;;;6.55;;
68633;SDS011;55625;47.072;22.192;2022-09-09T11:47:54;10.87;;;5.67;;
68633;SDS011;55625;47.072;22.192;2022-09-09T11:52:51;11.50;;;6.32;;
68633;SDS011;55625;47.072;22.192;2022-09-09T11:55:30;11.70;;;5.20;;
68633;SDS011;55625;47.072;22.192;2022-09-09T11:58:14;12.63;;;5.83;;
68633;SDS011;55625;47.072;22.192;2022-09-09T12:00:44;10.20;;;4.65;;
68633;SDS011;55625;47.072;22.192;2022-09-09T12:09:33;9.35;;;5.32;;
68633;SDS011;55625;47.072;22.192;2022-09-09T12:12:24;11.77;;;5.43;;
68633;SDS011;55625;47.072;22.192;2022-09-09T12:17:28;12.05;;;5.50;;
68633;SDS011;55625;47.072;22.192;2022-09-09T12:26:03;8.93;;;5.33;;
68633;SDS011;55625;47.072;22.192;2022-09-09T12:28:40;10.10;;;6.18;;
68633;SDS011;55625;47.072;22.192;2022-09-09T12:34:09;12.13;;;7.03;;
68633;SDS011;55625;47.072;22.192;2022-09-09T12:36:57;12.05;;;6.15;;
68633;SDS011;55625;47.072;22.192;2022-09-09T12:39:32;12.97;;;7.03;;
68633;SDS011;55625;47.072;22.192;2022-09-09T12:42:15;9.65;;;6.10;;
68633;SDS011;55625;47.072;22.192;2022-09-09T12:44:53;12.90;;;7.43;;
68633;SDS011;55625;47.072;22.192;2022-09-09T12:47:30;12.20;;;6.10;;
68633;SDS011;55625;47.072;22.192;2022-09-09T12:50:29;12.52;;;6.22;;
68633;SDS011;55625;47.072;22.192;2022-09-09T12:53:03;12.90;;;6.57;;
68633;SDS011;55625;47.072;22.192;2022-09-09T12:55:54;16.92;;;7.47;;
68633;SDS011;55625;47.072;22.192;2022-09-09T12:58:24;13.95;;;6.57;;
68633;SDS011;55625;47.072;22.192;2022-09-09T13:00:53;12.80;;;6.70;;
68633;SDS011;55625;47.072;22.192;2022-09-09T13:03:21;13.27;;;5.97;;
68633;SDS011;55625;47.072;22.192;2022-09-09T13:05:48;14.17;;;7.30;;
68633;SDS011;55625;47.072;22.192;2022-09-09T13:08:15;14.68;;;6.75;;
68633;SDS011;55625;47.072;22.192;2022-09-09T13:10:59;13.73;;;6.25;;
68633;SDS011;55625;47.072;22.192;2022-09-09T13:13:34;11.43;;;7.07;;
68633;SDS011;55625;47.072;22.192;2022-09-09T13:16:06;13.27;;;7.13;;
68633;SDS011;55625;47.072;22.192;2022-09-09T13:19:06;10.23;;;6.97;;
68633;SDS011;55625;47.072;22.192;2022-09-09T13:21:35;12.35;;;6.88;;
68633;SDS011;55625;47.072;22.192;2022-09-09T13:24:04;11.60;;;6.47;;
68633;SDS011;55625;47.072;22.192;2022-09-09T13:26:53;11.57;;;6.97;;
68633;SDS011;55625;47.072;22.192;2022-09-09T13:29:21;11.50;;;7.30;;
68633;SDS011;55625;47.072;22.192;2022-09-09T13:31:53;13.57;;;7.43;;
68633;SDS011;55625;47.072;22.192;2022-09-09T13:34:32;13.10;;;7.45;;
68633;SDS011;55625;47.072;22.192;2022-09-09T13:37:03;16.27;;;6.88;;
68633;SDS011;55625;47.072;22.192;2022-09-09T13:39:35;11.88;;;6.65;;
68633;SDS011;55625;47.072;22.192;2022-09-09T13:42:03;12.77;;;6.43;;
68633;SDS011;55625;47.072;22.192;2022-09-09T13:44:36;14.47;;;7.37;;
68633;SDS011;55625;47.072;22.192;2022-09-09T13:47:17;17.98;;;6.93;;
68633;SDS011;55625;47.072;22.192;2022-09-09T13:49:45;21.63;;;7.38;;
68633;SDS011;55625;47.072;22.192;2022-09-09T13:52:12;21.58;;;9.13;;
68633;SDS011;55625;47.072;22.192;2022-09-09T13:54:41;22.60;;;8.25;;
68633;SDS011;55625;47.072;22.192;2022-09-09T13:57:49;14.13;;;7.40;;
68633;SDS011;55625;47.072;22.192;2022-09-09T14:00:00;17.80;;;8.13;;
68633;SDS011;55625;47.072;22.192;2022-09-09T14:02:26;19.92;;;8.00;;
68633;SDS011;55625;47.072;22.192;2022-09-09T14:04:52;15.30;;;8.10;;
68633;SDS011;55625;47.072;22.192;2022-09-09T14:07:20;17.47;;;8.53;;
68633;SDS011;55625;47.072;22.192;2022-09-09T14:09:46;15.60;;;8.55;;
68633;SDS011;55625;47.072;22.192;2022-09-09T14:12:15;14.85;;;7.47;;
68633;SDS011;55625;47.072;22.192;2022-09-09T14:14:42;16.83;;;8.43;;
68633;SDS011;55625;47.072;22.192;2022-09-09T14:17:09;17.42;;;8.35;;
68633;SDS011;55625;47.072;22.192;2022-09-09T14:19:34;13.93;;;8.47;;
68633;SDS011;55625;47.072;22.192;2022-09-09T14:22:02;15.55;;;8.75;;
68633;SDS011;55625;47.072;22.192;2022-09-09T14:24:28;16.20;;;8.32;;
68633;SDS011;55625;47.072;22.192;2022-09-09T14:26:54;12.38;;;6.50;;
68633;SDS011;55625;47.072;22.192;2022-09-09T14:29:20;17.05;;;8.00;;
68633;SDS011;55625;47.072;22.192;2022-09-09T14:31:45;18.27;;;8.87;;
68633;SDS011;55625;47.072;22.192;2022-09-09T14:34:12;16.48;;;7.78;;
68633;SDS011;55625;47.072;22.192;2022-09-09T14:36:39;15.50;;;7.72;;
68633;SDS011;55625;47.072;22.192;2022-09-09T14:39:06;14.67;;;7.50;;
68633;SDS011;55625;47.072;22.192;2022-09-09T14:41:32;15.77;;;8.02;;
68633;SDS011;55625;47.072;22.192;2022-09-09T14:43:58;14.57;;;7.05;;
68633;SDS011;55625;47.072;22.192;2022-09-09T14:46:25;14.50;;;7.35;;
68633;SDS011;55625;47.072;22.192;2022-09-09T14:48:51;16.65;;;8.23;;
68633;SDS011;55625;47.072;22.192;2022-09-09T14:51:19;16.80;;;8.00;;
68633;SDS011;55625;47.072;22.192;2022-09-09T14:53:47;22.05;;;7.40;;
68633;SDS011;55625;47.072;22.192;2022-09-09T14:56:17;15.93;;;8.80;;
68633;SDS011;55625;47.072;22.192;2022-09-09T14:58:47;17.13;;;9.05;;
68633;SDS011;55625;47.072;22.192;2022-09-09T15:01:14;19.27;;;9.43;;
68633;SDS011;55625;47.072;22.192;2022-09-09T15:03:52;20.27;;;8.60;;
68633;SDS011;55625;47.072;22.192;2022-09-09T15:06:21;17.30;;;9.02;;
68633;SDS011;55625;47.072;22.192;2022-09-09T15:08:49;16.88;;;8.68;;
68633;SDS011;55625;47.072;22.192;2022-09-09T15:11:17;18.05;;;8.07;;
68633;SDS011;55625;47.072;22.192;2022-09-09T15:13:43;17.10;;;8.45;;
68633;SDS011;55625;47.072;22.192;2022-09-09T15:16:13;14.23;;;7.70;;
68633;SDS011;55625;47.072;22.192;2022-09-09T15:18:42;17.92;;;9.73;;
68633;SDS011;55625;47.072;22.192;2022-09-09T15:21:14;16.45;;;8.60;;
68633;SDS011;55625;47.072;22.192;2022-09-09T15:23:44;14.73;;;8.25;;
68633;SDS011;55625;47.072;22.192;2022-09-09T15:26:10;16.00;;;8.02;;
68633;SDS011;55625;47.072;22.192;2022-09-09T15:28:39;15.13;;;8.23;;
68633;SDS011;55625;47.072;22.192;2022-09-09T15:31:09;16.23;;;9.23;;
68633;SDS011;55625;47.072;22.192;2022-09-09T15:33:56;15.88;;;8.93;;
68633;SDS011;55625;47.072;22.192;2022-09-09T15:36:31;18.30;;;8.60;;
68633;SDS011;55625;47.072;22.192;2022-09-09T15:39:02;16.65;;;9.35;;
68633;SDS011;55625;47.072;22.192;2022-09-09T15:41:32;18.57;;;9.40;;
68633;SDS011;55625;47.072;22.192;2022-09-09T15:43:58;18.63;;;9.85;;
68633;SDS011;55625;47.072;22.192;2022-09-09T15:49:12;18.30;;;8.38;;
68633;SDS011;55625;47.072;22.192;2022-09-09T15:51:53;18.80;;;7.82;;
68633;SDS011;55625;47.072;22.192;2022-09-09T15:54:22;17.50;;;9.23;;
68633;SDS011;55625;47.072;22.192;2022-09-09T15:56:53;17.60;;;9.77;;
68633;SDS011;55625;47.072;22.192;2022-09-09T15:59:25;18.00;;;9.68;;
68633;SDS011;55625;47.072;22.192;2022-09-09T16:01:53;18.13;;;9.25;;
68633;SDS011;55625;47.072;22.192;2022-09-09T16:04:20;17.48;;;8.88;;
68633;SDS011;55625;47.072;22.192;2022-09-09T16:06:49;18.10;;;9.30;;
68633;SDS011;55625;47.072;22.192;2022-09-09T16:09:22;21.23;;;10.95;;
68633;SDS011;55625;47.072;22.192;2022-09-09T16:11:48;19.10;;;10.23;;
68633;SDS011;55625;47.072;22.192;2022-09-09T16:14:14;25.63;;;11.45;;
68633;SDS011;55625;47.072;22.192;2022-09-09T16:16:41;23.20;;;10.73;;
68633;SDS011;55625;47.072;22.192;2022-09-09T16:19:08;22.92;;;10.32;;
68633;SDS011;55625;47.072;22.192;2022-09-09T16:21:39;25.60;;;11.48;;
68633;SDS011;55625;47.072;22.192;2022-09-09T16:24:11;20.55;;;11.32;;
68633;SDS011;55625;47.072;22.192;2022-09-09T16:26:44;22.20;;;11.27;;
68633;SDS011;55625;47.072;22.192;2022-09-09T16:29:13;18.93;;;9.57;;
68633;SDS011;55625;47.072;22.192;2022-09-09T16:31:40;23.70;;;11.25;;
68633;SDS011;55625;47.072;22.192;2022-09-09T16:34:07;21.90;;;10.80;;
68633;SDS011;55625;47.072;22.192;2022-09-09T16:36:34;22.05;;;10.13;;
68633;SDS011;55625;47.072;22.192;2022-09-09T16:39:05;18.83;;;9.52;;
68633;SDS011;55625;47.072;22.192;2022-09-09T16:41:36;21.40;;;10.10;;
68633;SDS011;55625;47.072;22.192;2022-09-09T16:44:04;23.50;;;10.30;;
68633;SDS011;55625;47.072;22.192;2022-09-09T16:46:34;19.02;;;10.43;;
68633;SDS011;55625;47.072;22.192;2022-09-09T16:49:04;22.02;;;10.63;;
68633;SDS011;55625;47.072;22.192;2022-09-09T16:51:34;20.90;;;9.75;;
68633;SDS011;55625;47.072;22.192;2022-09-09T16:54:11;18.57;;;9.97;;
68633;SDS011;55625;47.072;22.192;2022-09-09T16:56:39;23.42;;;9.25;;
68633;SDS011;55625;47.072;22.192;2022-09-09T16:59:08;19.60;;;11.07;;
68633;SDS011;55625;47.072;22.192;2022-09-09T17:01:37;20.65;;;9.65;;
68633;SDS011;55625;47.072;22.192;2022-09-09T17:04:09;25.50;;;11.75;;
68633;SDS011;55625;47.072;22.192;2022-09-09T17:06:40;21.73;;;11.13;;
68633;SDS011;55625;47.072;22.192;2022-09-09T17:09:07;23.33;;;11.45;;
68633;SDS011;55625;47.072;22.192;2022-09-09T17:11:36;19.90;;;11.15;;
68633;SDS011;55625;47.072;22.192;2022-09-09T17:14:03;22.27;;;10.55;;
68633;SDS011;55625;47.072;22.192;2022-09-09T17:16:32;22.25;;;11.75;;
68633;SDS011;55625;47.072;22.192;2022-09-09T17:19:02;26.30;;;11.87;;
68633;SDS011;55625;47.072;22.192;2022-09-09T17:21:29;25.30;;;11.48;;
68633;SDS011;55625;47.072;22.192;2022-09-09T17:23:57;22.45;;;11.27;;
68633;SDS011;55625;47.072;22.192;2022-09-09T17:26:25;24.63;;;11.60;;
68633;SDS011;55625;47.072;22.192;2022-09-09T17:28:53;25.10;;;11.68;;
68633;SDS011;55625;47.072;22.192;2022-09-09T17:31:23;24.63;;;11.07;;
68633;SDS011;55625;47.072;22.192;2022-09-09T17:33:51;25.10;;;11.68;;
68633;SDS011;55625;47.072;22.192;2022-09-09T17:36:19;24.90;;;12.13;;
68633;SDS011;55625;47.072;22.192;2022-09-09T17:38:47;26.50;;;11.35;;
68633;SDS011;55625;47.072;22.192;2022-09-09T17:41:17;22.20;;;11.88;;
68633;SDS011;55625;47.072;22.192;2022-09-09T17:43:52;23.23;;;11.30;;
68633;SDS011;55625;47.072;22.192;2022-09-09T17:48:48;26.20;;;12.55;;
68633;SDS011;55625;47.072;22.192;2022-09-09T17:51:17;23.30;;;11.95;;
68633;SDS011;55625;47.072;22.192;2022-09-09T17:53:49;22.63;;;12.05;;
68633;SDS011;55625;47.072;22.192;2022-09-09T17:56:18;23.00;;;11.10;;